sensor_id;sensor_type;location;lat;lon;timestamp;temperature;humidity
74359;DHT22;62792;46.236;6.040;2023-06-24T00:05:10;27.70;50.40
74359;DHT22;62792;46.236;6.040;2023-06-24T00:10:13;27.70;50.60
74359;DHT22;62792;46.236;6.040;2023-06-24T00:15:18;27.80;50.30
74359;DHT22;62792;46.236;6.040;2023-06-24T00:20:23;27.70;50.40
74359;DHT22;62792;46.236;6.040;2023-06-24T00:25:26;27.70;50.30
74359;DHT22;62792;46.236;6.040;2023-06-24T00:30:29;27.70;50.30
74359;DHT22;62792;46.236;6.040;2023-06-24T00:35:33;27.70;50.10
74359;DHT22;62792;46.236;6.040;2023-06-24T00:40:36;27.70;50.10
74359;DHT22;62792;46.236;6.040;2023-06-24T00:45:40;27.70;50.00
74359;DHT22;62792;46.236;6.040;2023-06-24T00:50:45;27.60;50.30
74359;DHT22;62792;46.236;6.040;2023-06-24T00:55:48;27.70;50.30
74359;DHT22;62792;46.236;6.040;2023-06-24T01:00:50;27.70;50.00
74359;DHT22;62792;46.236;6.040;2023-06-24T01:06:00;27.60;50.00
74359;DHT22;62792;46.236;6.040;2023-06-24T01:11:03;27.60;50.20
74359;DHT22;62792;46.236;6.040;2023-06-24T01:16:07;27.60;50.00
74359;DHT22;62792;46.236;6.040;2023-06-24T01:21:15;27.70;49.80
74359;DHT22;62792;46.236;6.040;2023-06-24T01:26:32;27.60;49.90
74359;DHT22;62792;46.236;6.040;2023-06-24T01:31:45;27.60;49.80
74359;DHT22;62792;46.236;6.040;2023-06-24T01:36:54;27.60;49.80
74359;DHT22;62792;46.236;6.040;2023-06-24T01:42:00;27.60;49.90
74359;DHT22;62792;46.236;6.040;2023-06-24T01:47:09;27.60;49.80
74359;DHT22;62792;46.236;6.040;2023-06-24T01:52:13;27.60;49.60
74359;DHT22;62792;46.236;6.040;2023-06-24T01:57:16;27.70;49.60
74359;DHT22;62792;46.236;6.040;2023-06-24T02:02:22;27.60;49.60
74359;DHT22;62792;46.236;6.040;2023-06-24T02:07:26;27.60;49.70
74359;DHT22;62792;46.236;6.040;2023-06-24T02:12:31;27.60;49.50
74359;DHT22;62792;46.236;6.040;2023-06-24T02:17:35;27.60;49.50
74359;DHT22;62792;46.236;6.040;2023-06-24T02:22:39;27.60;49.40
74359;DHT22;62792;46.236;6.040;2023-06-24T02:27:43;27.50;49.40
74359;DHT22;62792;46.236;6.040;2023-06-24T02:32:47;27.50;49.40
74359;DHT22;62792;46.236;6.040;2023-06-24T02:37:50;27.60;49.40
74359;DHT22;62792;46.236;6.040;2023-06-24T02:42:53;27.50;49.40
74359;DHT22;62792;46.236;6.040;2023-06-24T02:47:58;27.50;49.20
74359;DHT22;62792;46.236;6.040;2023-06-24T02:53:01;27.50;49.30
74359;DHT22;62792;46.236;6.040;2023-06-24T02:58:04;27.50;49.20
74359;DHT22;62792;46.236;6.040;2023-06-24T03:03:10;27.50;49.40
74359;DHT22;62792;46.236;6.040;2023-06-24T03:08:14;27.50;49.20
74359;DHT22;62792;46.236;6.040;2023-06-24T03:13:17;27.50;49.50
74359;DHT22;62792;46.236;6.040;2023-06-24T03:18:21;27.50;49.40
74359;DHT22;62792;46.236;6.040;2023-06-24T03:23:25;27.40;49.40
74359;DHT22;62792;46.236;6.040;2023-06-24T03:28:28;27.50;49.20
74359;DHT22;62792;46.236;6.040;2023-06-24T03:33:32;27.50;49.50
74359;DHT22;62792;46.236;6.040;2023-06-24T03:38:35;27.50;49.70
74359;DHT22;62792;46.236;6.040;2023-06-24T03:43:38;27.40;49.60
74359;DHT22;62792;46.236;6.040;2023-06-24T03:48:44;27.40;49.40
74359;DHT22;62792;46.236;6.040;2023-06-24T03:53:48;27.40;49.60
74359;DHT22;62792;46.236;6.040;2023-06-24T03:58:51;27.30;49.70
74359;DHT22;62792;46.236;6.040;2023-06-24T04:03:56;27.40;49.60
74359;DHT22;62792;46.236;6.040;2023-06-24T04:08:59;27.40;49.60
74359;DHT22;62792;46.236;6.040;2023-06-24T04:14:03;27.30;49.70
74359;DHT22;62792;46.236;6.040;2023-06-24T04:19:09;27.40;49.60
74359;DHT22;62792;46.236;6.040;2023-06-24T04:24:12;27.30;49.70
74359;DHT22;62792;46.236;6.040;2023-06-24T04:29:15;27.40;49.50
74359;DHT22;62792;46.236;6.040;2023-06-24T04:34:19;27.30;49.90
74359;DHT22;62792;46.236;6.040;2023-06-24T04:39:22;27.30;49.70
74359;DHT22;62792;46.236;6.040;2023-06-24T04:44:25;27.40;49.60
74359;DHT22;62792;46.236;6.040;2023-06-24T04:49:29;27.40;49.60
74359;DHT22;62792;46.236;6.040;2023-06-24T04:54:32;27.30;49.60
74359;DHT22;62792;46.236;6.040;2023-06-24T04:59:35;27.40;49.40
74359;DHT22;62792;46.236;6.040;2023-06-24T05:04:41;27.30;49.70
74359;DHT22;62792;46.236;6.040;2023-06-24T05:09:45;27.40;49.50
74359;DHT22;62792;46.236;6.040;2023-06-24T05:14:49;27.30;49.70
74359;DHT22;62792;46.236;6.040;2023-06-24T05:19:54;27.30;49.60
74359;DHT22;62792;46.236;6.040;2023-06-24T05:24:58;27.30;49.60
74359;DHT22;62792;46.236;6.040;2023-06-24T05:30:00;27.40;49.80
74359;DHT22;62792;46.236;6.040;2023-06-24T05:35:06;27.40;49.70
74359;DHT22;62792;46.236;6.040;2023-06-24T05:40:09;27.30;49.50
74359;DHT22;62792;46.236;6.040;2023-06-24T05:45:14;27.30;49.60
74359;DHT22;62792;46.236;6.040;2023-06-24T05:50:18;27.30;49.60
74359;DHT22;62792;46.236;6.040;2023-06-24T05:55:21;27.30;49.70
74359;DHT22;62792;46.236;6.040;2023-06-24T06:00:24;27.30;49.80
74359;DHT22;62792;46.236;6.040;2023-06-24T06:05:28;27.20;50.20
74359;DHT22;62792;46.236;6.040;2023-06-24T06:10:31;27.30;49.70
74359;DHT22;62792;46.236;6.040;2023-06-24T06:15:34;27.30;49.80
74359;DHT22;62792;46.236;6.040;2023-06-24T06:20:39;27.30;50.00
74359;DHT22;62792;46.236;6.040;2023-06-24T06:25:42;27.30;50.00
74359;DHT22;62792;46.236;6.040;2023-06-24T06:30:48;27.30;49.90
74359;DHT22;62792;46.236;6.040;2023-06-24T06:35:52;27.30;50.30
74359;DHT22;62792;46.236;6.040;2023-06-24T06:40:55;27.30;50.20
74359;DHT22;62792;46.236;6.040;2023-06-24T06:45:58;27.30;50.10
74359;DHT22;62792;46.236;6.040;2023-06-24T06:51:02;27.30;50.30
74359;DHT22;62792;46.236;6.040;2023-06-24T06:56:06;27.20;50.20
74359;DHT22;62792;46.236;6.040;2023-06-24T07:01:08;27.20;50.30
74359;DHT22;62792;46.236;6.040;2023-06-24T07:06:14;27.30;50.20
74359;DHT22;62792;46.236;6.040;2023-06-24T07:11:17;27.20;50.30
74359;DHT22;62792;46.236;6.040;2023-06-24T07:16:20;27.20;50.20
74359;DHT22;62792;46.236;6.040;2023-06-24T07:21:24;27.30;50.10
74359;DHT22;62792;46.236;6.040;2023-06-24T07:26:27;27.30;50.10
74359;DHT22;62792;46.236;6.040;2023-06-24T07:31:31;27.20;50.10
74359;DHT22;62792;46.236;6.040;2023-06-24T07:36:36;27.20;50.20
74359;DHT22;62792;46.236;6.040;2023-06-24T07:41:39;27.20;50.10
74359;DHT22;62792;46.236;6.040;2023-06-24T07:46:43;27.20;50.00
74359;DHT22;62792;46.236;6.040;2023-06-24T07:51:48;27.30;49.80
74359;DHT22;62792;46.236;6.040;2023-06-24T07:56:51;27.20;49.70
74359;DHT22;62792;46.236;6.040;2023-06-24T08:01:54;27.20;49.60
74359;DHT22;62792;46.236;6.040;2023-06-24T08:06:58;27.30;49.50
74359;DHT22;62792;46.236;6.040;2023-06-24T08:12:02;27.20;49.20
74359;DHT22;62792;46.236;6.040;2023-06-24T08:17:05;27.30;49.30
74359;DHT22;62792;46.236;6.040;2023-06-24T08:22:09;27.20;49.10
74359;DHT22;62792;46.236;6.040;2023-06-24T08:27:12;27.30;49.30
74359;DHT22;62792;46.236;6.040;2023-06-24T08:32:15;27.20;49.20
74359;DHT22;62792;46.236;6.040;2023-06-24T08:37:19;27.30;49.20
74359;DHT22;62792;46.236;6.040;2023-06-24T08:42:23;27.30;49.40
74359;DHT22;62792;46.236;6.040;2023-06-24T08:47:27;27.20;49.20
74359;DHT22;62792;46.236;6.040;2023-06-24T08:52:34;27.20;49.20
74359;DHT22;62792;46.236;6.040;2023-06-24T08:57:38;27.20;49.00
74359;DHT22;62792;46.236;6.040;2023-06-24T09:02:41;27.20;49.30
74359;DHT22;62792;46.236;6.040;2023-06-24T09:07:46;27.20;49.00
74359;DHT22;62792;46.236;6.040;2023-06-24T09:12:51;27.20;49.00
74359;DHT22;62792;46.236;6.040;2023-06-24T09:17:57;27.20;49.00
74359;DHT22;62792;46.236;6.040;2023-06-24T09:23:01;27.20;48.60
74359;DHT22;62792;46.236;6.040;2023-06-24T09:28:05;27.20;48.70
74359;DHT22;62792;46.236;6.040;2023-06-24T09:33:10;27.30;48.20
74359;DHT22;62792;46.236;6.040;2023-06-24T09:38:14;27.20;48.10
74359;DHT22;62792;46.236;6.040;2023-06-24T09:43:34;27.20;48.00
74359;DHT22;62792;46.236;6.040;2023-06-24T09:48:40;27.20;47.90
74359;DHT22;62792;46.236;6.040;2023-06-24T09:53:44;27.30;47.80
74359;DHT22;62792;46.236;6.040;2023-06-24T09:58:48;27.30;47.80
74359;DHT22;62792;46.236;6.040;2023-06-24T10:03:51;27.30;47.50
74359;DHT22;62792;46.236;6.040;2023-06-24T10:08:56;27.30;47.50
74359;DHT22;62792;46.236;6.040;2023-06-24T10:13:59;27.30;47.30
74359;DHT22;62792;46.236;6.040;2023-06-24T10:19:02;27.30;47.20
74359;DHT22;62792;46.236;6.040;2023-06-24T10:24:10;27.30;47.30
74359;DHT22;62792;46.236;6.040;2023-06-24T10:29:13;27.30;47.30
74359;DHT22;62792;46.236;6.040;2023-06-24T10:34:30;27.20;47.00
74359;DHT22;62792;46.236;6.040;2023-06-24T10:44:59;27.20;46.70
74359;DHT22;62792;46.236;6.040;2023-06-24T10:50:03;27.20;46.90
74359;DHT22;62792;46.236;6.040;2023-06-24T10:55:08;27.30;46.90
74359;DHT22;62792;46.236;6.040;2023-06-24T11:00:12;27.30;46.90
74359;DHT22;62792;46.236;6.040;2023-06-24T11:05:15;27.30;46.80
74359;DHT22;62792;46.236;6.040;2023-06-24T11:10:20;27.30;46.60
74359;DHT22;62792;46.236;6.040;2023-06-24T11:15:24;27.30;46.80
74359;DHT22;62792;46.236;6.040;2023-06-24T11:20:27;27.30;47.00
74359;DHT22;62792;46.236;6.040;2023-06-24T11:25:37;27.30;46.80
74359;DHT22;62792;46.236;6.040;2023-06-24T11:30:43;27.30;46.90
74359;DHT22;62792;46.236;6.040;2023-06-24T11:35:46;27.30;46.60
74359;DHT22;62792;46.236;6.040;2023-06-24T11:40:51;27.30;46.60
74359;DHT22;62792;46.236;6.040;2023-06-24T11:45:54;27.30;46.80
74359;DHT22;62792;46.236;6.040;2023-06-24T11:50:57;27.40;46.70
74359;DHT22;62792;46.236;6.040;2023-06-24T11:56:01;27.40;46.80
74359;DHT22;62792;46.236;6.040;2023-06-24T12:01:06;27.40;46.60
74359;DHT22;62792;46.236;6.040;2023-06-24T12:06:10;27.30;46.70
74359;DHT22;62792;46.236;6.040;2023-06-24T12:11:16;27.30;46.60
74359;DHT22;62792;46.236;6.040;2023-06-24T12:16:18;27.40;46.70
74359;DHT22;62792;46.236;6.040;2023-06-24T12:21:21;27.40;46.80
74359;DHT22;62792;46.236;6.040;2023-06-24T12:26:26;27.40;46.80
74359;DHT22;62792;46.236;6.040;2023-06-24T12:31:29;27.40;46.70
74359;DHT22;62792;46.236;6.040;2023-06-24T12:36:32;27.40;47.00
74359;DHT22;62792;46.236;6.040;2023-06-24T12:41:36;27.40;46.70
74359;DHT22;62792;46.236;6.040;2023-06-24T12:46:40;27.40;46.70
74359;DHT22;62792;46.236;6.040;2023-06-24T12:51:43;27.50;46.70
74359;DHT22;62792;46.236;6.040;2023-06-24T12:56:47;27.50;46.70
74359;DHT22;62792;46.236;6.040;2023-06-24T13:01:53;27.40;46.70
74359;DHT22;62792;46.236;6.040;2023-06-24T13:06:56;27.40;46.80
74359;DHT22;62792;46.236;6.040;2023-06-24T13:12:00;27.40;46.70
74359;DHT22;62792;46.236;6.040;2023-06-24T13:17:03;27.50;46.90
74359;DHT22;62792;46.236;6.040;2023-06-24T13:22:07;27.50;46.80
74359;DHT22;62792;46.236;6.040;2023-06-24T13:27:11;27.40;46.80
74359;DHT22;62792;46.236;6.040;2023-06-24T13:32:14;27.40;46.80
74359;DHT22;62792;46.236;6.040;2023-06-24T13:37:17;27.50;46.90
74359;DHT22;62792;46.236;6.040;2023-06-24T13:42:21;27.50;46.80
74359;DHT22;62792;46.236;6.040;2023-06-24T13:47:24;27.50;46.70
74359;DHT22;62792;46.236;6.040;2023-06-24T13:52:27;27.50;46.70
74359;DHT22;62792;46.236;6.040;2023-06-24T13:57:31;27.60;46.70
74359;DHT22;62792;46.236;6.040;2023-06-24T14:02:34;27.60;46.60
74359;DHT22;62792;46.236;6.040;2023-06-24T14:07:37;27.60;46.80
74359;DHT22;62792;46.236;6.040;2023-06-24T14:12:44;27.50;46.80
74359;DHT22;62792;46.236;6.040;2023-06-24T14:17:47;27.60;46.70
74359;DHT22;62792;46.236;6.040;2023-06-24T14:22:50;27.70;46.80
74359;DHT22;62792;46.236;6.040;2023-06-24T14:27:54;27.70;46.90
74359;DHT22;62792;46.236;6.040;2023-06-24T14:32:57;27.60;46.80
74359;DHT22;62792;46.236;6.040;2023-06-24T14:38:00;27.70;46.70
74359;DHT22;62792;46.236;6.040;2023-06-24T14:43:05;27.70;46.90
74359;DHT22;62792;46.236;6.040;2023-06-24T14:48:08;27.70;47.10
74359;DHT22;62792;46.236;6.040;2023-06-24T14:53:11;27.70;47.00
74359;DHT22;62792;46.236;6.040;2023-06-24T14:58:15;27.70;46.90
74359;DHT22;62792;46.236;6.040;2023-06-24T15:03:20;27.80;47.00
74359;DHT22;62792;46.236;6.040;2023-06-24T15:08:23;27.70;47.20
74359;DHT22;62792;46.236;6.040;2023-06-24T15:13:29;27.80;47.30
74359;DHT22;62792;46.236;6.040;2023-06-24T15:18:32;27.90;47.10
74359;DHT22;62792;46.236;6.040;2023-06-24T15:23:35;27.80;47.30
74359;DHT22;62792;46.236;6.040;2023-06-24T15:28:40;27.90;47.10
74359;DHT22;62792;46.236;6.040;2023-06-24T15:33:43;27.80;47.20
74359;DHT22;62792;46.236;6.040;2023-06-24T15:38:46;27.80;47.30
74359;DHT22;62792;46.236;6.040;2023-06-24T15:43:50;27.90;47.20
74359;DHT22;62792;46.236;6.040;2023-06-24T15:48:53;27.90;47.10
74359;DHT22;62792;46.236;6.040;2023-06-24T15:53:56;27.90;47.30
74359;DHT22;62792;46.236;6.040;2023-06-24T15:59:00;28.00;47.20
74359;DHT22;62792;46.236;6.040;2023-06-24T16:04:03;28.00;47.20
74359;DHT22;62792;46.236;6.040;2023-06-24T16:09:06;28.00;47.30
74359;DHT22;62792;46.236;6.040;2023-06-24T16:14:11;28.10;47.30
74359;DHT22;62792;46.236;6.040;2023-06-24T16:19:14;28.00;47.40
74359;DHT22;62792;46.236;6.040;2023-06-24T16:24:18;28.00;47.30
74359;DHT22;62792;46.236;6.040;2023-06-24T16:29:22;28.00;47.50
74359;DHT22;62792;46.236;6.040;2023-06-24T16:34:25;28.10;47.30
74359;DHT22;62792;46.236;6.040;2023-06-24T16:39:31;28.10;47.60
74359;DHT22;62792;46.236;6.040;2023-06-24T16:44:35;28.20;47.30
74359;DHT22;62792;46.236;6.040;2023-06-24T16:49:39;28.20;47.50
74359;DHT22;62792;46.236;6.040;2023-06-24T16:54:42;28.20;47.50
74359;DHT22;62792;46.236;6.040;2023-06-24T16:59:46;28.20;47.50
74359;DHT22;62792;46.236;6.040;2023-06-24T17:04:49;28.20;47.40
74359;DHT22;62792;46.236;6.040;2023-06-24T17:09:52;28.20;47.50
74359;DHT22;62792;46.236;6.040;2023-06-24T17:14:56;28.30;47.40
74359;DHT22;62792;46.236;6.040;2023-06-24T17:19:59;28.30;47.70
74359;DHT22;62792;46.236;6.040;2023-06-24T17:25:03;28.30;47.70
74359;DHT22;62792;46.236;6.040;2023-06-24T17:30:08;28.30;47.70
74359;DHT22;62792;46.236;6.040;2023-06-24T17:35:11;28.20;47.50
74359;DHT22;62792;46.236;6.040;2023-06-24T17:40:14;28.40;47.80
74359;DHT22;62792;46.236;6.040;2023-06-24T17:45:18;28.30;47.50
74359;DHT22;62792;46.236;6.040;2023-06-24T17:50:21;28.30;47.50
74359;DHT22;62792;46.236;6.040;2023-06-24T17:55:25;28.30;47.70
74359;DHT22;62792;46.236;6.040;2023-06-24T18:00:32;28.30;47.70
74359;DHT22;62792;46.236;6.040;2023-06-24T18:05:41;28.40;47.70
74359;DHT22;62792;46.236;6.040;2023-06-24T18:10:44;28.40;47.70
74359;DHT22;62792;46.236;6.040;2023-06-24T18:15:48;28.50;47.40
74359;DHT22;62792;46.236;6.040;2023-06-24T18:20:51;28.40;47.50
74359;DHT22;62792;46.236;6.040;2023-06-24T18:25:54;28.40;47.70
74359;DHT22;62792;46.236;6.040;2023-06-24T18:30:58;28.60;47.50
74359;DHT22;62792;46.236;6.040;2023-06-24T18:36:01;28.50;47.60
74359;DHT22;62792;46.236;6.040;2023-06-24T18:41:04;28.50;47.80
74359;DHT22;62792;46.236;6.040;2023-06-24T18:46:08;28.50;47.80
74359;DHT22;62792;46.236;6.040;2023-06-24T18:51:11;28.50;47.60
74359;DHT22;62792;46.236;6.040;2023-06-24T18:56:14;28.50;48.00
74359;DHT22;62792;46.236;6.040;2023-06-24T19:01:19;28.40;48.00
74359;DHT22;62792;46.236;6.040;2023-06-24T19:06:22;28.50;48.00
74359;DHT22;62792;46.236;6.040;2023-06-24T19:11:24;28.40;47.80
74359;DHT22;62792;46.236;6.040;2023-06-24T19:16:29;28.50;48.00
74359;DHT22;62792;46.236;6.040;2023-06-24T19:21:32;28.50;48.10
74359;DHT22;62792;46.236;6.040;2023-06-24T19:26:35;28.40;48.10
74359;DHT22;62792;46.236;6.040;2023-06-24T19:31:41;28.40;48.10
74359;DHT22;62792;46.236;6.040;2023-06-24T19:36:46;28.40;48.00
74359;DHT22;62792;46.236;6.040;2023-06-24T19:41:49;28.40;48.30
74359;DHT22;62792;46.236;6.040;2023-06-24T19:46:53;28.50;48.00
74359;DHT22;62792;46.236;6.040;2023-06-24T19:51:56;28.40;48.30
74359;DHT22;62792;46.236;6.040;2023-06-24T19:56:59;28.40;48.10
74359;DHT22;62792;46.236;6.040;2023-06-24T20:02:03;28.50;48.20
74359;DHT22;62792;46.236;6.040;2023-06-24T20:07:06;28.40;48.10
74359;DHT22;62792;46.236;6.040;2023-06-24T20:12:10;28.40;48.00
74359;DHT22;62792;46.236;6.040;2023-06-24T20:17:14;28.40;48.20
74359;DHT22;62792;46.236;6.040;2023-06-24T20:22:17;28.40;48.30
74359;DHT22;62792;46.236;6.040;2023-06-24T20:27:22;28.40;48.30
74359;DHT22;62792;46.236;6.040;2023-06-24T20:32:27;28.50;48.30
74359;DHT22;62792;46.236;6.040;2023-06-24T20:37:30;28.40;48.50
74359;DHT22;62792;46.236;6.040;2023-06-24T20:42:34;28.40;48.40
74359;DHT22;62792;46.236;6.040;2023-06-24T20:47:38;28.30;48.50
74359;DHT22;62792;46.236;6.040;2023-06-24T20:52:41;28.40;48.50
74359;DHT22;62792;46.236;6.040;2023-06-24T20:57:47;28.40;48.50
74359;DHT22;62792;46.236;6.040;2023-06-24T21:02:51;28.30;48.90
74359;DHT22;62792;46.236;6.040;2023-06-24T21:07:55;28.40;48.60
74359;DHT22;62792;46.236;6.040;2023-06-24T21:12:57;28.30;48.60
74359;DHT22;62792;46.236;6.040;2023-06-24T21:18:02;28.40;48.60
74359;DHT22;62792;46.236;6.040;2023-06-24T21:23:05;28.40;48.80
74359;DHT22;62792;46.236;6.040;2023-06-24T21:28:08;28.40;48.80
74359;DHT22;62792;46.236;6.040;2023-06-24T21:33:12;28.30;48.70
74359;DHT22;62792;46.236;6.040;2023-06-24T21:38:15;28.30;48.70
74359;DHT22;62792;46.236;6.040;2023-06-24T21:43:18;28.30;48.80
74359;DHT22;62792;46.236;6.040;2023-06-24T21:48:22;28.30;48.70
74359;DHT22;62792;46.236;6.040;2023-06-24T21:53:25;28.30;48.60
74359;DHT22;62792;46.236;6.040;2023-06-24T21:58:33;28.30;48.50
74359;DHT22;62792;46.236;6.040;2023-06-24T22:03:38;28.30;48.50
74359;DHT22;62792;46.236;6.040;2023-06-24T22:08:41;28.30;48.40
74359;DHT22;62792;46.236;6.040;2023-06-24T22:13:44;28.30;48.50
74359;DHT22;62792;46.236;6.040;2023-06-24T22:18:48;28.30;48.20
74359;DHT22;62792;46.236;6.040;2023-06-24T22:23:51;28.40;48.40
74359;DHT22;62792;46.236;6.040;2023-06-24T22:28:54;28.40;48.20
74359;DHT22;62792;46.236;6.040;2023-06-24T22:33:58;28.30;48.30
74359;DHT22;62792;46.236;6.040;2023-06-24T22:39:02;28.20;48.60
74359;DHT22;62792;46.236;6.040;2023-06-24T22:44:05;28.30;48.40
74359;DHT22;62792;46.236;6.040;2023-06-24T22:49:09;28.30;48.60
74359;DHT22;62792;46.236;6.040;2023-06-24T22:54:12;28.30;48.50
74359;DHT22;62792;46.236;6.040;2023-06-24T22:59:15;28.20;48.40
74359;DHT22;62792;46.236;6.040;2023-06-24T23:04:19;28.30;48.60
74359;DHT22;62792;46.236;6.040;2023-06-24T23:09:23;28.30;48.50
74359;DHT22;62792;46.236;6.040;2023-06-24T23:14:26;28.20;48.70
74359;DHT22;62792;46.236;6.040;2023-06-24T23:19:31;28.30;48.70
74359;DHT22;62792;46.236;6.040;2023-06-24T23:24:34;28.20;48.70
74359;DHT22;62792;46.236;6.040;2023-06-24T23:29:38;28.20;48.70
74359;DHT22;62792;46.236;6.040;2023-06-24T23:34:44;28.30;48.90
74359;DHT22;62792;46.236;6.040;2023-06-24T23:39:47;28.30;48.90
74359;DHT22;62792;46.236;6.040;2023-06-24T23:44:51;28.30;49.00
74359;DHT22;62792;46.236;6.040;2023-06-24T23:49:55;28.20;49.10
74359;DHT22;62792;46.236;6.040;2023-06-24T23:54:58;28.20;49.00
